Time;durP1;ratioP1;P1;durP2;ratioP2;P2;SDS_P1;SDS_P2;PMS_P1;PMS_P2;Temp;Humidity;BMP_temperature;BMP_pressure;BME280_temperature;BME280_humidity;BME280_pressure;Samples;Min_cycle;Max_cycle;Signal;HPM_P1;HPM_P2
2022/04/05 00:01:10;;;;;;;19.45;6.97;;;;;;;-142.75;100.00;76806.50;5051074;28;20078;-68
2022/04/05 00:03:35;;;;;;;14.30;6.65;;;;;;;-142.75;100.00;76820.28;5052040;28;20029;-69
2022/04/05 00:06:01;;;;;;;13.85;6.45;;;;;;;-142.75;100.00;76822.25;5051347;28;20037;-68
2022/04/05 00:08:26;;;;;;;17.55;6.88;;;;;;;-142.75;100.00;76838.00;5050922;28;20036;-69
2022/04/05 00:10:51;;;;;;;15.77;7.03;;;;;;;-142.75;100.00;76839.97;5049014;28;20402;-70
2022/04/05 00:13:16;;;;;;;19.45;6.40;;;;;;;-142.75;100.00;76845.88;5039766;28;20040;-69
2022/04/05 00:15:42;;;;;;;14.05;7.15;;;;;;;-142.75;100.00;76834.06;5042764;28;20032;-70
2022/04/05 00:18:07;;;;;;;15.25;6.60;;;;;;;-142.75;100.00;76832.09;5031062;28;20053;-68
2022/04/05 00:20:34;;;;;;;14.88;6.30;;;;;;;-142.75;100.00;76849.81;5034086;28;20031;-68
2022/04/05 00:22:59;;;;;;;18.00;7.05;;;;;;;-142.75;100.00;76849.81;5029903;28;20112;-68
2022/04/05 00:25:24;;;;;;;11.55;6.78;;;;;;;-142.75;100.00;76849.81;5033559;28;20101;-68
2022/04/05 00:27:50;;;;;;;16.70;7.30;;;;;;;-142.75;100.00;76857.69;5050889;28;20671;-68
2022/04/05 00:30:15;;;;;;;14.57;6.38;;;;;;;-142.75;100.00;76869.50;5050825;28;20394;-70
2022/04/05 00:32:42;;;;;;;14.00;7.50;;;;;;;-142.75;100.00;76877.38;5051370;28;20033;-68
2022/04/05 00:35:08;;;;;;;14.73;7.18;;;;;;;-142.75;100.00;76881.31;5050745;28;20017;-68
2022/04/05 00:37:33;;;;;;;;;;;;;;;-142.75;100.00;76873.44;5040736;28;20021;-71
2022/04/05 00:39:58;;;;;;;14.13;6.30;;;;;;;-142.75;100.00;76877.38;5030844;28;22063;-68
2022/04/05 00:42:24;;;;;;;15.85;6.38;;;;;;;-142.75;100.00;76887.22;5040718;28;20021;-69
2022/04/05 00:44:49;;;;;;;15.95;7.18;;;;;;;-142.75;100.00;76881.31;5050052;28;20031;-69
2022/04/05 00:47:20;;;;;;;15.57;6.28;;;;;;;-142.75;100.00;76885.25;5049498;28;20410;-69
2022/04/05 00:49:47;;;;;;;17.00;6.10;;;;;;;-142.75;100.00;76885.25;5043857;28;20021;-68
2022/04/05 00:52:13;;;;;;;12.35;5.88;;;;;;;-142.75;100.00;76885.25;5044900;28;20032;-71
2022/04/05 00:54:40;;;;;;;11.98;6.70;;;;;;;-142.75;100.00;76897.06;5041406;28;20029;-69
2022/04/05 00:57:10;;;;;;;13.30;6.30;;;;;;;-142.75;100.00;76897.06;5038997;28;20025;-68
2022/04/05 00:59:38;;;;;;;14.35;6.05;;;;;;;-142.75;100.00;76891.16;5031667;28;20017;-69
2022/04/05 01:02:03;;;;;;;10.35;5.78;;;;;;;-142.75;100.00;76895.09;5049110;28;20036;-69
2022/04/05 01:04:30;;;;;;;12.60;6.38;;;;;;;-142.75;100.00;76897.06;5057737;28;20037;-68
2022/04/05 01:06:57;;;;;;;10.00;5.82;;;;;;;-142.75;100.00;76904.94;5030365;28;20040;-68
2022/04/05 01:09:23;;;;;;;15.98;6.13;;;;;;;-142.75;100.00;76904.94;5035781;28;20031;-66
2022/04/05 01:11:49;;;;;;;12.63;5.68;;;;;;;-142.75;100.00;76904.94;5040075;28;20490;-68
2022/04/05 01:14:14;;;;;;;11.40;5.70;;;;;;;-142.75;100.00;76912.81;5030456;28;20110;-68
2022/04/05 01:16:39;;;;;;;12.73;5.93;;;;;;;-142.75;100.00;76910.84;5037245;28;20171;-68
2022/04/05 01:19:06;;;;;;;11.10;5.72;;;;;;;-142.75;100.00;76912.81;5035629;28;20013;-68
2022/04/05 01:21:35;;;;;;;15.30;6.65;;;;;;;-142.75;100.00;76916.75;5038350;28;20032;-68
2022/04/05 01:24:11;;;;;;;13.57;5.43;;;;;;;-142.75;100.00;76922.66;5049966;28;20029;-68
2022/04/05 01:26:38;;;;;;;9.35;5.03;;;;;;;-142.75;100.00;76918.72;5048927;28;20159;-68
2022/04/05 01:29:04;;;;;;;9.77;5.68;;;;;;;-142.75;100.00;76920.69;5049044;28;20028;-68
2022/04/05 01:31:29;;;;;;;12.43;5.82;;;;;;;-142.75;100.00;76922.66;5043716;28;20386;-68
2022/04/05 01:33:55;;;;;;;9.90;5.30;;;;;;;-142.75;100.00;76918.72;5050486;28;20025;-68
2022/04/05 01:36:23;;;;;;;9.77;4.93;;;;;;;-142.75;100.00;76914.78;5035641;28;20491;-68
2022/04/05 01:38:48;;;;;;;9.55;5.13;;;;;;;-142.75;100.00;76916.75;5028509;28;20454;-68
2022/04/05 01:41:14;;;;;;;7.70;4.95;;;;;;;-142.75;100.00;76920.69;5038361;28;20048;-70
2022/04/05 01:43:40;;;;;;;9.32;4.25;;;;;;;-142.75;100.00;76914.78;5047564;28;20053;-68
2022/04/05 01:46:06;;;;;;;8.27;4.15;;;;;;;-142.75;100.00;76916.75;5045127;28;20518;-68
2022/04/05 01:48:32;;;;;;;9.95;4.05;;;;;;;-142.75;100.00;76920.69;5040483;28;20025;-68
2022/04/05 01:50:57;;;;;;;7.68;4.47;;;;;;;-142.75;100.00;76910.84;5041114;28;20411;-69
2022/04/05 01:53:22;;;;;;;11.05;4.28;;;;;;;-142.75;100.00;76916.75;5035608;28;20021;-66
2022/04/05 01:55:47;;;;;;;8.48;4.47;;;;;;;-142.75;100.00;76916.75;5050402;28;20016;-68
2022/04/05 01:58:13;;;;;;;10.35;4.45;;;;;;;-142.75;100.00;76916.75;5046222;28;20029;-70
2022/04/05 02:03:11;;;;;;;8.43;4.78;;;;;;;-142.75;100.00;76918.72;5056984;22;20056;-67
2022/04/05 02:05:38;;;;;;;11.55;5.53;;;;;;;-142.75;100.00;76920.69;5032567;28;20112;-67
2022/04/05 02:08:04;;;;;;;9.20;4.85;;;;;;;-142.75;100.00;76912.81;5033521;28;20475;-65
2022/04/05 02:10:30;;;;;;;14.45;5.60;;;;;;;-142.75;100.00;76912.81;5033583;28;20036;-66
2022/04/05 02:12:55;;;;;;;12.13;6.65;;;;;;;-142.75;100.00;76912.81;5033812;28;20099;-66
2022/04/05 02:15:21;;;;;;;12.02;5.97;;;;;;;-142.75;100.00;76904.94;5033488;28;20487;-67
2022/04/05 02:17:46;;;;;;;14.55;6.38;;;;;;;-142.75;100.00;76902.97;5033225;28;20080;-66
2022/04/05 02:20:13;;;;;;;11.38;6.05;;;;;;;-142.75;100.00;76912.81;5033455;28;20038;-67
2022/04/05 02:22:38;;;;;;;15.40;6.82;;;;;;;-142.75;100.00;76906.91;5032206;28;20029;-67
2022/04/05 02:25:04;;;;;;;13.30;5.68;;;;;;;-142.75;100.00;76912.81;5033608;28;20033;-66
2022/04/05 02:27:29;;;;;;;9.60;6.63;;;;;;;-142.75;100.00;76904.94;5033293;28;20060;-67
2022/04/05 02:29:55;;;;;;;15.95;7.30;;;;;;;-142.75;100.00;76916.75;5033138;28;20480;-67
2022/04/05 02:32:20;;;;;;;9.95;6.30;;;;;;;-142.75;100.00;76910.84;5033673;28;20479;-67
2022/04/05 02:34:45;;;;;;;13.32;5.95;;;;;;;-142.75;100.00;76904.94;5033550;28;20029;-66
2022/04/05 02:37:10;;;;;;;8.52;5.63;;;;;;;-142.75;100.00;76904.94;5033202;28;20025;-66
2022/04/05 02:39:36;;;;;;;10.82;6.70;;;;;;;-142.75;100.00;76901.00;5031754;28;20025;-67
2022/04/05 02:42:01;;;;;;;10.13;6.22;;;;;;;-142.75;100.00;76893.13;5033127;28;20471;-67
2022/04/05 02:44:27;;;;;;;10.30;6.22;;;;;;;-142.75;100.00;76902.97;5031452;28;20056;-66
2022/04/05 02:46:52;;;;;;;11.20;5.57;;;;;;;-142.75;100.00;76906.91;5033186;28;20104;-66
2022/04/05 02:49:17;;;;;;;10.88;6.45;;;;;;;-142.75;100.00;76897.06;5032679;28;20057;-67
2022/04/05 02:51:43;;;;;;;11.43;6.35;;;;;;;-142.75;100.00;76908.88;5033277;28;20096;-67
2022/04/05 02:54:08;;;;;;;12.23;6.55;;;;;;;-142.75;100.00;76899.03;5033386;28;20071;-67
2022/04/05 02:56:34;;;;;;;10.07;6.88;;;;;;;-142.75;100.00;76897.06;5031522;28;20028;-68
2022/04/05 02:58:59;;;;;;;11.75;6.50;;;;;;;-142.75;100.00;76902.97;5032596;28;20041;-67
2022/04/05 03:01:25;;;;;;;13.88;6.13;;;;;;;-142.75;100.00;76901.00;5032751;28;20103;-67
2022/04/05 03:03:50;;;;;;;11.38;6.53;;;;;;;-142.75;100.00;76899.03;5033254;28;20022;-67
2022/04/05 03:06:16;;;;;;;9.80;6.83;;;;;;;-142.75;100.00;76889.19;5032533;28;20060;-67
2022/04/05 03:08:42;;;;;;;12.70;7.28;;;;;;;-142.75;100.00;76893.13;5032357;28;20681;-67
2022/04/05 03:11:07;;;;;;;14.20;6.60;;;;;;;-142.75;100.00;76897.06;5032458;28;20040;-67
2022/04/05 03:13:33;;;;;;;12.02;7.05;;;;;;;-142.75;100.00;76902.97;5032662;28;20025;-67
2022/04/05 03:15:58;;;;;;;10.07;6.82;;;;;;;-142.75;100.00;76893.13;5032488;28;20025;-67
2022/04/05 03:18:24;;;;;;;10.35;7.10;;;;;;;-142.75;100.00;76889.19;5032090;28;20025;-67
2022/04/05 03:20:50;;;;;;;12.15;7.72;;;;;;;-142.75;100.00;76889.19;5032464;28;20025;-67
2022/04/05 03:23:15;;;;;;;15.50;8.00;;;;;;;-142.75;100.00;76889.19;5031116;28;20030;-67
2022/04/05 03:25:41;;;;;;;12.63;8.07;;;;;;;-142.75;100.00;76897.06;5032446;28;20022;-67
2022/04/05 03:28:06;;;;;;;16.85;8.07;;;;;;;-142.75;100.00;76889.19;5031951;28;20029;-67
2022/04/05 03:30:31;;;;;;;13.13;7.75;;;;;;;-142.75;100.00;76891.16;5032266;28;20033;-67
2022/04/05 03:32:57;;;;;;;14.30;6.70;;;;;;;-142.75;100.00;76893.13;5032802;28;20025;-67
2022/04/05 03:35:23;;;;;;;18.20;8.80;;;;;;;-142.75;100.00;76891.16;5032122;28;20060;-67
2022/04/05 03:37:48;;;;;;;14.55;7.50;;;;;;;-142.75;100.00;76889.19;5050648;28;20032;-66
2022/04/05 03:40:14;;;;;;;13.80;7.25;;;;;;;-142.75;100.00;76889.19;5051993;28;20028;-67
2022/04/05 03:42:39;;;;;;;11.93;7.20;;;;;;;-142.75;100.00;76885.25;5052053;28;20483;-67
2022/04/05 03:45:05;;;;;;;9.43;6.78;;;;;;;-142.75;100.00;76893.13;5051410;28;20499;-67
2022/04/05 03:47:31;;;;;;;14.50;7.93;;;;;;;-142.75;100.00;76887.22;5051974;28;20111;-67
2022/04/05 03:49:56;;;;;;;17.13;8.07;;;;;;;-142.75;100.00;76891.16;5051555;28;20025;-67
2022/04/05 03:52:21;;;;;;;13.63;7.90;;;;;;;-142.75;100.00;76891.16;5051636;28;20364;-67
2022/04/05 03:54:47;;;;;;;18.52;7.80;;;;;;;-142.75;100.00;76885.25;5050577;28;20017;-67
2022/04/05 03:57:13;;;;;;;14.82;8.70;;;;;;;-142.75;100.00;76893.13;5051680;28;20021;-67
2022/04/05 03:59:38;;;;;;;15.75;8.10;;;;;;;-142.75;100.00;76885.25;5051487;28;20025;-67
2022/04/05 04:02:04;;;;;;;18.80;7.95;;;;;;;-142.75;100.00;76889.19;5042750;28;20118;-67
2022/04/05 04:04:30;;;;;;;16.13;8.60;;;;;;;-142.75;100.00;76887.22;5031977;28;20156;-67
2022/04/05 04:06:55;;;;;;;15.30;8.63;;;;;;;-142.75;100.00;76897.06;5031633;28;20100;-67
2022/04/05 04:09:21;;;;;;;13.93;6.80;;;;;;;-142.75;100.00;76889.19;5030885;28;20029;-67
2022/04/05 04:11:46;;;;;;;21.75;7.00;;;;;;;-142.75;100.00;76889.19;5031748;28;20025;-67
2022/04/05 04:14:12;;;;;;;13.80;7.10;;;;;;;-142.75;100.00;76893.13;5031604;28;20025;-65
2022/04/05 04:16:37;;;;;;;11.57;6.30;;;;;;;-142.75;100.00;76883.28;5031416;28;20024;-65
2022/04/05 04:19:03;;;;;;;12.98;6.90;;;;;;;-142.75;100.00;76883.28;5031240;28;20033;-65
2022/04/05 04:21:28;;;;;;;;;;;;;;;-142.75;100.00;76877.38;5031899;28;20108;-65
2022/04/05 04:23:54;;;;;;;16.17;6.80;;;;;;;-142.75;100.00;76873.44;5048296;28;20042;-65
2022/04/05 04:26:19;;;;;;;14.70;7.05;;;;;;;-142.75;100.00;76885.25;5051106;28;20052;-65
2022/04/05 04:28:49;;;;;;;12.65;6.63;;;;;;;-142.75;100.00;76875.41;5050818;28;20063;-65
2022/04/05 04:31:14;;;;;;;16.05;6.72;;;;;;;-142.75;100.00;76881.31;5050783;28;20041;-65
2022/04/05 04:33:39;;;;;;;11.77;6.05;;;;;;;-142.75;100.00;76885.25;5051695;28;20029;-66
2022/04/05 04:36:05;;;;;;;15.48;7.13;;;;;;;-142.75;100.00;76875.41;5051079;28;20094;-66
2022/04/05 04:38:30;;;;;;;16.02;6.63;;;;;;;-142.75;100.00;76877.38;5050582;28;20568;-66
2022/04/05 04:40:56;;;;;;;12.85;6.38;;;;;;;-142.75;100.00;76875.41;5051085;28;20068;-66
2022/04/05 04:43:23;;;;;;;13.38;6.75;;;;;;;-142.75;100.00;76875.41;5050094;28;20028;-66
2022/04/05 04:45:48;;;;;;;15.15;6.70;;;;;;;-142.75;100.00;76875.41;5050655;28;20483;-66
2022/04/05 04:48:14;;;;;;;12.73;6.68;;;;;;;-142.75;100.00;76873.44;5050476;28;20027;-65
2022/04/05 04:50:39;;;;;;;11.85;6.35;;;;;;;-142.75;100.00;76873.44;5051143;28;20049;-66
2022/04/05 04:53:04;;;;;;;12.73;6.25;;;;;;;-142.75;100.00;76873.44;5050636;28;20025;-66
2022/04/05 04:55:32;;;;;;;9.68;5.78;;;;;;;-142.75;100.00;76871.47;5050740;28;20028;-66
2022/04/05 04:57:57;;;;;;;12.50;5.90;;;;;;;-142.75;100.00;76869.50;5050267;28;20033;-66
2022/04/05 05:00:23;;;;;;;15.23;6.63;;;;;;;-142.75;100.00;76865.56;5050919;28;20032;-66
2022/04/05 05:02:49;;;;;;;15.90;6.28;;;;;;;-142.75;100.00;76865.56;5051146;28;20035;-66
2022/04/05 05:05:18;;;;;;;11.50;6.43;;;;;;;-142.75;100.00;76871.47;5050810;28;20506;-66
2022/04/05 05:07:45;;;;;;;11.63;6.07;;;;;;;-142.75;100.00;76861.63;5050600;28;20509;-66
2022/04/05 05:10:11;;;;;;;13.93;5.93;;;;;;;-142.75;100.00;76857.69;5050182;28;20032;-66
2022/04/05 05:12:38;;;;;;;10.02;5.32;;;;;;;-142.75;100.00;76857.69;5050693;28;20104;-66
2022/04/05 05:15:04;;;;;;;14.02;5.22;;;;;;;-142.75;100.00;76857.69;5049841;28;20033;-66
2022/04/05 05:17:29;;;;;;;13.32;5.50;;;;;;;-142.75;100.00;76857.69;5050843;28;20035;-66
2022/04/05 05:19:55;;;;;;;11.00;5.20;;;;;;;-142.75;100.00;76861.63;5049632;28;20099;-66
2022/04/05 05:22:20;;;;;;;7.65;4.97;;;;;;;-142.75;100.00;76855.72;5050864;28;20290;-65
2022/04/05 05:24:46;;;;;;;12.48;5.30;;;;;;;-142.75;100.00;76853.75;5050252;28;20063;-66
2022/04/05 05:27:13;;;;;;;10.48;5.35;;;;;;;-142.75;100.00;76857.69;5050599;28;20028;-66
2022/04/05 05:29:38;;;;;;;9.65;4.90;;;;;;;-142.75;100.00;76853.75;5050173;28;20065;-66
2022/04/05 05:32:04;;;;;;;11.98;5.50;;;;;;;-142.75;100.00;76857.69;5049297;28;20048;-65
2022/04/05 05:34:29;;;;;;;10.60;5.13;;;;;;;-142.75;100.00;76845.88;5051160;28;20044;-66
2022/04/05 05:36:54;;;;;;;12.75;4.95;;;;;;;-142.75;100.00;76847.84;5050314;28;20437;-66
2022/04/05 05:39:20;;;;;;;9.80;4.63;;;;;;;-142.75;100.00;76841.94;5050034;28;20032;-66
2022/04/05 05:41:47;;;;;;;8.05;4.63;;;;;;;-142.75;100.00;76839.97;5050242;28;20036;-67
2022/04/05 05:44:12;;;;;;;10.35;4.50;;;;;;;-142.75;100.00;76838.00;5048629;28;20103;-65
2022/04/05 05:46:37;;;;;;;9.00;4.80;;;;;;;-142.75;100.00;76836.03;5050556;28;20109;-66
2022/04/05 05:49:03;;;;;;;11.63;4.38;;;;;;;-142.75;100.00;76843.91;5050110;28;20032;-65
2022/04/05 05:51:28;;;;;;;10.00;5.15;;;;;;;-142.75;100.00;76839.97;5048300;28;20032;-66
2022/04/05 05:53:54;;;;;;;8.40;3.88;;;;;;;-142.75;100.00;76845.88;5049907;28;20037;-65
2022/04/05 05:56:19;;;;;;;8.77;5.00;;;;;;;-142.75;100.00;76843.91;5049702;28;20021;-65
2022/04/05 05:58:46;;;;;;;7.47;4.13;;;;;;;-142.75;100.00;76845.88;5047029;28;20028;-66
2022/04/05 06:01:11;;;;;;;11.18;4.45;;;;;;;-142.75;100.00;76843.91;5049887;28;20025;-67
2022/04/05 06:03:36;;;;;;;11.13;4.45;;;;;;;-142.75;100.00;76843.91;5049883;28;20147;-66
2022/04/05 06:06:01;;;;;;;11.88;4.55;;;;;;;-142.75;100.00;76851.78;5048895;28;20129;-65
2022/04/05 06:08:27;;;;;;;11.73;4.55;;;;;;;-142.75;100.00;76845.88;5049211;28;20442;-66
2022/04/05 06:10:52;;;;;;;10.90;4.00;;;;;;;-142.75;100.00;76838.00;5048800;28;20017;-65
2022/04/05 06:13:18;;;;;;;12.65;4.35;;;;;;;-142.75;100.00;76832.09;5048006;28;20021;-65
2022/04/05 06:15:43;;;;;;;9.70;3.72;;;;;;;-142.75;100.00;76830.13;5049305;28;20036;-66
2022/04/05 06:18:08;;;;;;;11.32;3.97;;;;;;;-142.75;100.00;76828.16;5047157;28;20035;-65
2022/04/05 06:20:34;;;;;;;7.70;4.30;;;;;;;-142.75;100.00;76824.22;5048572;28;20032;-65
2022/04/05 06:23:02;;;;;;;7.88;3.50;;;;;;;-142.75;100.00;76822.25;5048774;28;20036;-65
2022/04/05 06:25:32;;;;;;;6.93;3.60;;;;;;;-142.75;100.00;76814.38;5048862;28;20544;-65
2022/04/05 06:28:01;;;;;;;11.45;3.53;;;;;;;-142.75;100.00;76820.28;5048968;28;20044;-66
2022/04/05 06:30:27;;;;;;;8.93;3.80;;;;;;;-142.75;100.00;76828.16;5047608;28;20055;-65
2022/04/05 06:33:06;;;;;;;12.15;3.83;;;;;;;-142.75;100.00;76818.31;5052562;28;20029;-65
2022/04/05 06:35:32;;;;;;;6.00;3.17;;;;;;;-142.75;100.00;76818.31;5052007;28;20037;-66
2022/04/05 06:37:57;;;;;;;6.20;4.03;;;;;;;-142.75;100.00;76816.34;5051931;28;20071;-66
2022/04/05 06:40:23;;;;;;;5.32;3.22;;;;;;;-142.75;100.00;76806.50;5052246;28;20043;-65
2022/04/05 06:42:48;;;;;;;9.98;3.63;;;;;;;-142.75;100.00;76808.50;5052108;28;20040;-66
2022/04/05 06:45:17;;;;;;;7.93;3.28;;;;;;;-142.75;100.00;76810.44;5051882;28;20082;-66
2022/04/05 06:47:42;;;;;;;10.20;3.95;;;;;;;-142.75;100.00;76806.50;5052040;28;20424;-66
2022/04/05 06:50:09;;;;;;;7.90;3.30;;;;;;;-142.75;100.00;76798.66;5051661;28;20035;-66
2022/04/05 06:52:40;;;;;;;11.02;3.22;;;;;;;-142.75;100.00;76802.56;5051986;28;20047;-65
2022/04/05 06:55:07;;;;;;;6.38;3.20;;;;;;;-142.75;100.00;76792.75;5052211;28;20576;-66
2022/04/05 06:57:32;;;;;;;9.77;3.72;;;;;;;-142.75;100.00;76788.81;5052102;28;20025;-66
2022/04/05 06:59:58;;;;;;;7.75;3.30;;;;;;;-142.75;100.00;76784.88;5052158;28;20380;-65
2022/04/05 07:02:23;;;;;;;8.30;3.45;;;;;;;-142.75;100.00;76778.97;5052018;28;20032;-65
2022/04/05 07:04:48;;;;;;;9.18;3.83;;;;;;;-142.75;100.00;76782.91;5052515;28;20537;-66
2022/04/05 07:07:14;;;;;;;8.43;3.50;;;;;;;-142.75;100.00;76777.00;5051620;28;20031;-65
2022/04/05 07:09:39;;;;;;;8.73;3.22;;;;;;;-142.75;100.00;76767.16;5051505;28;20078;-65
2022/04/05 07:12:07;;;;;;;9.38;3.17;;;;;;;-142.75;100.00;76767.16;5051741;28;20116;-65
2022/04/05 07:14:33;;;;;;;6.10;2.92;;;;;;;-142.75;100.00;76763.22;5051959;28;20041;-65
2022/04/05 07:16:58;;;;;;;6.15;2.85;;;;;;;-142.75;100.00;76763.22;5051884;28;20211;-66
2022/04/05 07:19:23;;;;;;;7.03;3.55;;;;;;;-142.75;100.00;76759.28;5051739;28;20025;-66
2022/04/05 07:21:49;;;;;;;5.07;2.63;;;;;;;-142.75;100.00;76759.28;5052030;28;20056;-66
2022/04/05 07:24:14;;;;;;;7.25;2.97;;;;;;;-142.75;100.00;76763.22;5051719;28;20036;-65
2022/04/05 07:26:39;;;;;;;5.75;2.85;;;;;;;-142.75;100.00;76761.25;5051617;28;20021;-65
2022/04/05 07:29:05;;;;;;;9.30;3.00;;;;;;;-142.75;100.00;76765.19;5051568;28;20113;-65
2022/04/05 07:31:30;;;;;;;6.00;2.60;;;;;;;-142.75;100.00;76757.31;5051145;28;20483;-65
2022/04/05 07:33:55;;;;;;;5.90;2.58;;;;;;;-142.75;100.00;76763.22;5052097;28;20032;-65
2022/04/05 07:36:20;;;;;;;4.78;2.63;;;;;;;-142.75;100.00;76759.28;5050873;28;20475;-65
2022/04/05 07:38:46;;;;;;;7.68;3.25;;;;;;;-142.75;100.00;76755.34;5050876;28;20025;-67
2022/04/05 07:41:11;;;;;;;7.00;2.97;;;;;;;-142.75;100.00;76765.19;5051576;28;20033;-67
2022/04/05 07:43:36;;;;;;;4.83;2.80;;;;;;;-142.75;100.00;76767.16;5049979;28;20024;-67
2022/04/05 07:46:02;;;;;;;8.13;3.42;;;;;;;-142.75;100.00;76767.16;5049921;28;20801;-66
2022/04/05 07:48:28;;;;;;;5.45;3.13;;;;;;;-142.75;100.00;76777.00;5049456;28;20116;-67
2022/04/05 07:50:53;;;;;;;;;;;;;;;-142.75;100.00;76767.16;5051368;28;20506;-66
2022/04/05 07:53:19;;;;;;;7.00;3.15;;;;;;;-142.75;100.00;76767.16;5051187;28;19916;-67
2022/04/05 07:55:44;;;;;;;6.38;2.70;;;;;;;-142.75;100.00;76773.06;5051042;28;20075;-67
2022/04/05 07:58:09;;;;;;;10.07;3.03;;;;;;;-142.75;100.00;76763.22;5032605;28;20702;-66
2022/04/05 08:00:36;;;;;;;4.55;2.78;;;;;;;-142.75;100.00;76759.28;5031259;28;20027;-66
2022/04/05 08:03:01;;;;;;;;;;;;;;;-142.75;100.00;76765.19;5031461;28;20026;-66
2022/04/05 08:05:27;;;;;;;8.48;3.13;;;;;;;-142.75;100.00;76771.09;5053810;22;19925;-66
2022/04/05 08:07:53;;;;;;;7.60;2.88;;;;;;;-142.75;100.00;76771.09;5029622;28;20021;-67
2022/04/05 08:10:19;;;;;;;;;;;;;;;-142.75;100.00;76784.88;5031242;28;20394;-67
2022/04/05 08:12:47;;;;;;;5.63;2.58;;;;;;;-142.75;100.00;76784.88;5031494;28;19917;-67
2022/04/05 08:15:17;;;;;;;8.15;3.15;;;;;;;-142.75;100.00;76792.75;5031209;28;20040;-66
2022/04/05 08:17:43;;;;;;;10.27;3.25;;;;;;;-142.75;100.00;76794.69;5030233;28;20087;-69
2022/04/05 08:20:09;;;;;;;10.50;3.75;;;;;;;-142.75;100.00;76794.69;5030833;28;20475;-68
2022/04/05 08:22:35;;;;;;;6.90;3.10;;;;;;;-142.75;100.00;76786.84;5030015;28;20048;-67
2022/04/05 08:25:00;;;;;;;4.32;2.63;;;;;;;-142.75;100.00;76790.78;5031045;28;20410;-68
2022/04/05 08:27:26;;;;;;;6.22;2.53;;;;;;;-142.75;100.00;76788.81;5030088;28;20018;-68
2022/04/05 08:29:52;;;;;;;6.10;2.88;;;;;;;-142.75;100.00;76786.84;5030920;28;20507;-67
2022/04/05 08:32:17;;;;;;;11.90;3.35;;;;;;;-142.75;100.00;76790.78;5029742;28;20689;-67
2022/04/05 08:34:45;;;;;;;7.25;3.35;;;;;;;-142.75;100.00;76790.78;5031411;28;20525;-68
2022/04/05 08:37:11;;;;;;;9.95;2.85;;;;;;;-142.75;100.00;76786.84;5029761;28;20701;-68
2022/04/05 08:39:37;;;;;;;8.57;3.17;;;;;;;-142.75;100.00;76792.75;5030663;28;20380;-69
2022/04/05 08:42:06;;;;;;;5.65;3.20;;;;;;;-142.75;100.00;76796.69;5030879;28;20033;-69
2022/04/05 08:44:32;;;;;;;10.10;3.50;;;;;;;-142.75;100.00;76804.53;5030651;28;20109;-68
2022/04/05 08:47:01;;;;;;;6.85;3.08;;;;;;;-142.75;100.00;76806.50;5030661;28;20124;-67
2022/04/05 08:49:28;;;;;;;9.18;2.95;;;;;;;-142.75;100.00;76804.53;5025750;28;20125;-67
2022/04/05 08:51:54;;;;;;;7.53;3.15;;;;;;;-142.75;100.00;76802.56;5029763;28;20021;-66
2022/04/05 08:54:19;;;;;;;9.85;3.30;;;;;;;-142.75;100.00;76802.56;5030646;28;20035;-67
2022/04/05 08:56:46;;;;;;;7.75;2.95;;;;;;;-142.75;100.00;76794.69;5030296;28;20442;-67
2022/04/05 08:59:12;;;;;;;6.95;3.03;;;;;;;-142.75;100.00;76792.75;5030271;28;20098;-67
2022/04/05 09:01:38;;;;;;;6.28;2.53;;;;;;;-142.75;100.00;76796.69;5030152;28;20021;-67
2022/04/05 09:04:04;;;;;;;;;;;;;;;-142.75;100.00;76794.69;5029082;28;20074;-67
2022/04/05 09:06:31;;;;;;;8.38;3.45;;;;;;;-142.75;100.00;76790.78;5030039;28;20346;-67
2022/04/05 09:09:17;;;;;;;6.20;2.97;;;;;;;-142.75;100.00;76790.78;5029806;28;20037;-67
2022/04/05 09:11:50;;;;;;;9.15;3.08;;;;;;;-142.75;100.00;76798.66;5030243;28;20026;-67
2022/04/05 09:14:26;;;;;;;9.50;3.47;;;;;;;-142.75;100.00;76798.66;5029954;28;20037;-67
2022/04/05 09:17:06;;;;;;;10.70;3.78;;;;;;;-142.75;100.00;76796.69;5030262;28;20060;-67
2022/04/05 09:19:38;;;;;;;9.15;3.15;;;;;;;-142.75;100.00;76800.63;5029885;28;20018;-66
2022/04/05 09:22:04;;;;;;;5.72;2.90;;;;;;;-142.75;100.00;76796.69;5030044;28;20025;-68
2022/04/05 09:24:37;;;;;;;8.18;3.65;;;;;;;-142.75;100.00;76804.53;5029788;28;20029;-67
2022/04/05 09:27:04;;;;;;;8.02;3.13;;;;;;;-142.75;100.00;76802.56;5029824;28;20036;-67
2022/04/05 09:29:43;;;;;;;8.82;3.40;;;;;;;-142.75;100.00;76798.66;5029733;28;20495;-67
2022/04/05 09:32:10;;;;;;;6.93;3.40;;;;;;;-142.75;100.00;76804.53;5028626;28;20021;-67
2022/04/05 09:34:51;;;;;;;13.30;3.72;;;;;;;-142.75;100.00;76798.66;5030381;28;20056;-68
2022/04/05 09:37:24;;;;;;;11.07;3.38;;;;;;;-142.75;100.00;76800.63;5027578;28;20101;-66
2022/04/05 09:39:49;;;;;;;7.65;4.28;;;;;;;-142.75;100.00;76802.56;5029624;28;20025;-67
2022/04/05 09:42:14;;;;;;;7.18;3.13;;;;;;;-142.75;100.00;76790.78;5029869;28;20034;-67
2022/04/05 09:44:42;;;;;;;6.68;3.28;;;;;;;-142.75;100.00;76796.69;5029189;28;20079;-67
2022/04/05 09:47:21;;;;;;;6.25;2.97;;;;;;;-142.75;100.00;76782.91;5029787;28;20487;-67
2022/04/05 09:49:49;;;;;;;10.85;3.55;;;;;;;-142.75;100.00;76778.97;5027872;28;20112;-67
2022/04/05 09:52:26;;;;;;;6.97;2.85;;;;;;;-142.75;100.00;76765.19;5028304;28;20059;-67
2022/04/05 09:54:51;;;;;;;;;;;;;;;-142.75;100.00;76755.34;5030290;28;20029;-67
2022/04/05 09:57:28;;;;;;;6.15;2.47;;;;;;;-142.75;100.00;76755.34;5029518;28;19920;-67
2022/04/05 10:00:12;;;;;;;6.18;2.25;;;;;;;-142.75;100.00;76749.44;5029215;28;20386;-66
2022/04/05 10:02:58;;;;;;;8.38;2.88;;;;;;;-142.75;100.00;76751.41;5028398;28;20021;-67
2022/04/05 10:05:23;;;;;;;7.15;3.33;;;;;;;-142.75;100.00;76745.50;5029852;28;20108;-66
2022/04/05 10:07:49;;;;;;;13.30;3.97;;;;;;;-142.75;100.00;76743.53;5033160;28;20167;-66
2022/04/05 10:10:14;;;;;;;5.82;3.00;;;;;;;-142.75;100.00;76747.47;5033195;28;20124;-67
2022/04/05 10:12:40;;;;;;;10.68;3.55;;;;;;;-142.75;100.00;76745.50;5033336;28;20104;-67
2022/04/05 10:15:06;;;;;;;;;;;;;;;-142.75;100.00;76743.53;5033913;28;20407;-67
2022/04/05 10:17:32;;;;;;;6.15;3.00;;;;;;;-142.75;100.00;76729.75;5031917;28;19913;-67
2022/04/05 10:20:00;;;;;;;6.82;3.53;;;;;;;-142.75;100.00;76727.78;5031957;28;20483;-67
2022/04/05 10:22:26;;;;;;;9.70;4.20;;;;;;;-142.75;100.00;76731.72;5033246;28;20040;-67
2022/04/05 10:24:52;;;;;;;;;;;;;;;-142.75;100.00;76712.03;5033703;28;20025;-66
2022/04/05 10:27:19;;;;;;;7.37;3.87;;;;;;;-142.75;100.00;76684.47;5033017;28;19913;-66
2022/04/05 10:29:45;;;;;;;8.25;4.45;;;;;;;-142.75;100.00;76662.81;5032924;28;20311;-66
2022/04/05 10:32:24;;;;;;;10.45;4.50;;;;;;;-142.75;100.00;76649.03;5033108;28;20866;-67
2022/04/05 10:35:02;;;;;;;8.25;4.47;;;;;;;-142.75;100.00;76639.19;5033471;28;20430;-67
2022/04/05 10:37:38;;;;;;;12.68;5.15;;;;;;;-142.75;100.00;76639.19;5032975;28;20148;-67
2022/04/05 10:40:03;;;;;;;11.63;4.82;;;;;;;-142.75;100.00;76643.13;5032605;28;20028;-67
2022/04/05 10:42:35;;;;;;;8.87;4.57;;;;;;;-142.75;100.00;76647.06;5033078;28;20021;-67
2022/04/05 10:45:14;;;;;;;9.05;4.80;;;;;;;-142.75;100.00;76635.25;5031330;28;20033;-67
2022/04/05 10:48:08;;;;;;;11.77;5.22;;;;;;;-142.75;100.00;76629.34;5032990;28;20021;-67
2022/04/05 10:50:33;;;;;;;12.65;5.85;;;;;;;-142.75;100.00;76643.13;5032725;28;20043;-67
2022/04/05 10:53:18;;;;;;;11.35;5.88;;;;;;;-142.75;100.00;76627.38;5031551;28;20029;-68
2022/04/05 10:56:11;;;;;;;12.68;6.53;;;;;;;-142.75;100.00;76637.22;5032793;28;20025;-67
2022/04/05 10:58:54;;;;;;;15.07;7.93;;;;;;;-142.75;100.00;76645.09;5031987;28;20446;-67
2022/04/05 11:01:21;;;;;;;14.48;6.35;;;;;;;-142.75;100.00;76641.16;5032545;28;20021;-67
2022/04/05 11:04:18;;;;;;;9.65;6.95;;;;;;;-142.75;100.00;76613.59;5031465;28;20021;-66
2022/04/05 11:07:02;;;;;;;;;;;;;;;-142.75;100.00;76597.84;5032407;28;20030;-67
2022/04/05 11:09:34;;;;;;;12.38;6.93;;;;;;;-142.75;100.00;76601.78;5032397;28;20291;-67